RJTL(METAR)
10/16 18:00
METAR RJTL 160900Z 07003KT 040V100 9999 FEW020 BKN040 16/10 Q1024
RMK 1CU020 7SC040 A3025=
戻る
トップページへ戻る
IMOC Co,.Ltd.